Wainfleet, United Kingdom
Current Conditions -  °F | °C
As of 12:50 PM on Friday 24 Oct 2014 (Local Time) from EGXC Reporting Station
Broken Clouds Broken Clouds  
Wind Chill: 61°   Ceiling: 1800
Heat Index: 61°   Visibility: 6mi
Dew Point: 55°   Wind: 14mph
Humidity: 82%   Direction: 220°SW
Pressure: 29.88"   Gusts: NA
Location:  53.03°N, 0.27°E
Report Text: EGXC 241150Z 22012KT 9999 BKN018 BKN070 BKN110 16/13 Q1012 WHT TEMPO SCT012 GRN
Loading
Personal Weather Stations






























Interactive Weather Map
Tropical Storm Tracking
New forecast layout! Learn more

10-Day Weather Forecast

Advertisements
Track Severe Weather on mobile